sensor_id;sensor_type;location;lat;lon;timestamp;pressure;altitude;pressure_sealevel;temperature;humidity
11124;BME280;5616;42.692;23.312;2023-03-18T00:02:00;95554.06;;;2.61;85.15
11124;BME280;5616;42.692;23.312;2023-03-18T00:04:27;95552.41;;;2.71;84.63
11124;BME280;5616;42.692;23.312;2023-03-18T00:06:56;95552.03;;;2.75;84.41
11124;BME280;5616;42.692;23.312;2023-03-18T00:09:24;95549.44;;;2.55;84.28
11124;BME280;5616;42.692;23.312;2023-03-18T00:11:52;95541.19;;;2.62;83.92
11124;BME280;5616;42.692;23.312;2023-03-18T00:14:21;95541.06;;;2.64;84.36
11124;BME280;5616;42.692;23.312;2023-03-18T00:16:48;95537.38;;;2.57;84.83
11124;BME280;5616;42.692;23.312;2023-03-18T00:19:15;95527.09;;;2.58;84.18
11124;BME280;5616;42.692;23.312;2023-03-18T00:21:43;95531.06;;;2.72;85.21
11124;BME280;5616;42.692;23.312;2023-03-18T00:24:11;95531.59;;;2.66;84.43
11124;BME280;5616;42.692;23.312;2023-03-18T00:26:38;95527.59;;;2.73;84.44
11124;BME280;5616;42.692;23.312;2023-03-18T00:29:04;95526.06;;;2.81;84.32
11124;BME280;5616;42.692;23.312;2023-03-18T00:31:32;95519.66;;;2.87;84.08
11124;BME280;5616;42.692;23.312;2023-03-18T00:33:59;95529.09;;;2.75;84.36
11124;BME280;5616;42.692;23.312;2023-03-18T00:36:25;95525.97;;;2.72;84.38
11124;BME280;5616;42.692;23.312;2023-03-18T00:38:55;95523.66;;;2.69;84.63
11124;BME280;5616;42.692;23.312;2023-03-18T00:41:25;95515.13;;;2.59;85.52
11124;BME280;5616;42.692;23.312;2023-03-18T00:43:53;95513.47;;;2.69;85.28
11124;BME280;5616;42.692;23.312;2023-03-18T00:46:22;95508.47;;;2.78;84.50
11124;BME280;5616;42.692;23.312;2023-03-18T00:48:50;95498.13;;;2.80;84.02
11124;BME280;5616;42.692;23.312;2023-03-18T00:51:18;95501.22;;;2.63;84.31
11124;BME280;5616;42.692;23.312;2023-03-18T00:53:48;95500.59;;;2.50;85.11
11124;BME280;5616;42.692;23.312;2023-03-18T00:56:17;95500.81;;;2.46;86.11
11124;BME280;5616;42.692;23.312;2023-03-18T00:58:46;95493.34;;;2.34;85.59
11124;BME280;5616;42.692;23.312;2023-03-18T01:01:14;95493.56;;;2.42;85.79
11124;BME280;5616;42.692;23.312;2023-03-18T01:03:42;95491.44;;;2.47;85.81
11124;BME280;5616;42.692;23.312;2023-03-18T01:06:10;95493.81;;;2.28;85.48
11124;BME280;5616;42.692;23.312;2023-03-18T01:08:37;95487.91;;;2.27;86.59
11124;BME280;5616;42.692;23.312;2023-03-18T01:11:07;95489.25;;;2.42;86.50
11124;BME280;5616;42.692;23.312;2023-03-18T01:13:35;95476.47;;;2.54;86.21
11124;BME280;5616;42.692;23.312;2023-03-18T01:16:04;95481.00;;;2.50;85.55
11124;BME280;5616;42.692;23.312;2023-03-18T01:18:31;95479.75;;;2.44;85.33
11124;BME280;5616;42.692;23.312;2023-03-18T01:20:58;95483.56;;;2.50;85.31
11124;BME280;5616;42.692;23.312;2023-03-18T01:23:28;95476.50;;;2.42;86.18
11124;BME280;5616;42.692;23.312;2023-03-18T01:25:55;95473.63;;;2.36;86.15
11124;BME280;5616;42.692;23.312;2023-03-18T01:28:23;95481.91;;;2.28;86.40
11124;BME280;5616;42.692;23.312;2023-03-18T01:30:52;95476.38;;;2.12;87.32
11124;BME280;5616;42.692;23.312;2023-03-18T01:33:22;95471.53;;;1.98;87.39
11124;BME280;5616;42.692;23.312;2023-03-18T01:35:53;95473.19;;;1.88;88.51
11124;BME280;5616;42.692;23.312;2023-03-18T01:38:23;95474.81;;;1.78;89.31
11124;BME280;5616;42.692;23.312;2023-03-18T01:40:50;95476.19;;;1.82;88.92
11124;BME280;5616;42.692;23.312;2023-03-18T01:43:22;95468.00;;;1.78;89.25
11124;BME280;5616;42.692;23.312;2023-03-18T01:45:51;95467.78;;;1.70;89.24
11124;BME280;5616;42.692;23.312;2023-03-18T01:48:24;95470.31;;;1.70;90.23
11124;BME280;5616;42.692;23.312;2023-03-18T01:51:00;95475.78;;;1.66;90.33
11124;BME280;5616;42.692;23.312;2023-03-18T01:53:39;95469.16;;;1.63;90.74
11124;BME280;5616;42.692;23.312;2023-03-18T01:56:07;95463.38;;;1.72;90.34
11124;BME280;5616;42.692;23.312;2023-03-18T01:58:37;95467.84;;;1.91;90.07
11124;BME280;5616;42.692;23.312;2023-03-18T02:01:08;95463.44;;;2.04;89.56
11124;BME280;5616;42.692;23.312;2023-03-18T02:03:40;95463.66;;;2.12;88.36
11124;BME280;5616;42.692;23.312;2023-03-18T02:06:09;95463.91;;;1.87;88.68
11124;BME280;5616;42.692;23.312;2023-03-18T02:08:37;95459.09;;;1.73;89.30
11124;BME280;5616;42.692;23.312;2023-03-18T02:11:05;95456.44;;;1.74;89.47
11124;BME280;5616;42.692;23.312;2023-03-18T02:13:34;95449.97;;;1.70;89.74
11124;BME280;5616;42.692;23.312;2023-03-18T02:16:07;95457.13;;;1.76;89.20
11124;BME280;5616;42.692;23.312;2023-03-18T02:18:40;95446.38;;;1.73;89.17
11124;BME280;5616;42.692;23.312;2023-03-18T02:21:26;95457.38;;;1.73;88.89
11124;BME280;5616;42.692;23.312;2023-03-18T02:24:03;95455.38;;;1.77;88.73
11124;BME280;5616;42.692;23.312;2023-03-18T02:26:38;95450.78;;;1.71;88.74
11124;BME280;5616;42.692;23.312;2023-03-18T02:29:10;95458.75;;;1.66;89.75
11124;BME280;5616;42.692;23.312;2023-03-18T02:31:46;95464.78;;;1.76;89.51
11124;BME280;5616;42.692;23.312;2023-03-18T02:34:21;95454.59;;;1.76;88.63
11124;BME280;5616;42.692;23.312;2023-03-18T02:36:52;95449.72;;;1.73;88.80
11124;BME280;5616;42.692;23.312;2023-03-18T02:39:20;95453.66;;;1.66;89.12
11124;BME280;5616;42.692;23.312;2023-03-18T02:41:48;95453.31;;;1.71;88.66
11124;BME280;5616;42.692;23.312;2023-03-18T02:44:17;95458.16;;;1.85;88.80
11124;BME280;5616;42.692;23.312;2023-03-18T02:47:08;95447.66;;;1.67;88.73
11124;BME280;5616;42.692;23.312;2023-03-18T02:49:37;95459.09;;;1.51;89.78
11124;BME280;5616;42.692;23.312;2023-03-18T02:52:05;95459.47;;;1.57;90.25
11124;BME280;5616;42.692;23.312;2023-03-18T02:54:31;95457.97;;;1.55;89.95
11124;BME280;5616;42.692;23.312;2023-03-18T02:56:59;95450.09;;;1.58;89.92
11124;BME280;5616;42.692;23.312;2023-03-18T02:59:28;95460.28;;;1.47;90.66
11124;BME280;5616;42.692;23.312;2023-03-18T03:01:57;95452.66;;;1.58;90.54
11124;BME280;5616;42.692;23.312;2023-03-18T03:04:24;95456.25;;;1.55;89.94
11124;BME280;5616;42.692;23.312;2023-03-18T03:06:52;95462.34;;;1.64;90.53
11124;BME280;5616;42.692;23.312;2023-03-18T03:09:33;95451.56;;;1.71;89.79
11124;BME280;5616;42.692;23.312;2023-03-18T03:12:00;95455.16;;;1.80;88.65
11124;BME280;5616;42.692;23.312;2023-03-18T03:14:29;95459.53;;;1.89;88.77
11124;BME280;5616;42.692;23.312;2023-03-18T03:16:59;95459.31;;;1.92;88.13
11124;BME280;5616;42.692;23.312;2023-03-18T03:19:25;95454.75;;;1.96;87.06
11124;BME280;5616;42.692;23.312;2023-03-18T03:21:53;95454.91;;;1.83;86.77
11124;BME280;5616;42.692;23.312;2023-03-18T03:24:22;95462.31;;;1.86;87.32
11124;BME280;5616;42.692;23.312;2023-03-18T03:26:49;95462.56;;;1.83;87.10
11124;BME280;5616;42.692;23.312;2023-03-18T03:29:16;95463.13;;;1.87;87.68
11124;BME280;5616;42.692;23.312;2023-03-18T03:31:44;95470.28;;;1.93;87.11
11124;BME280;5616;42.692;23.312;2023-03-18T03:34:11;95473.28;;;1.98;87.52
11124;BME280;5616;42.692;23.312;2023-03-18T03:36:38;95471.91;;;1.94;86.82
11124;BME280;5616;42.692;23.312;2023-03-18T03:39:05;95469.50;;;1.59;87.26
11124;BME280;5616;42.692;23.312;2023-03-18T03:41:34;95476.91;;;1.51;87.89
11124;BME280;5616;42.692;23.312;2023-03-18T03:44:00;95472.19;;;1.57;88.79
11124;BME280;5616;42.692;23.312;2023-03-18T03:46:27;95477.50;;;1.54;89.21
11124;BME280;5616;42.692;23.312;2023-03-18T03:48:56;95479.22;;;1.43;89.08
11124;BME280;5616;42.692;23.312;2023-03-18T03:51:23;95473.91;;;1.35;90.07
11124;BME280;5616;42.692;23.312;2023-03-18T03:53:50;95481.22;;;1.28;89.63
11124;BME280;5616;42.692;23.312;2023-03-18T03:56:17;95481.56;;;1.23;90.13
11124;BME280;5616;42.692;23.312;2023-03-18T03:58:44;95476.22;;;1.15;90.31
11124;BME280;5616;42.692;23.312;2023-03-18T04:01:11;95480.84;;;1.10;90.98
11124;BME280;5616;42.692;23.312;2023-03-18T04:03:38;95482.81;;;1.07;91.32
11124;BME280;5616;42.692;23.312;2023-03-18T04:06:07;95480.25;;;1.07;91.32
11124;BME280;5616;42.692;23.312;2023-03-18T04:08:40;95479.09;;;1.11;91.75
11124;BME280;5616;42.692;23.312;2023-03-18T04:11:07;95476.00;;;1.07;91.61
11124;BME280;5616;42.692;23.312;2023-03-18T04:13:34;95483.00;;;0.93;91.55
11124;BME280;5616;42.692;23.312;2023-03-18T04:16:02;95490.59;;;0.82;92.93
11124;BME280;5616;42.692;23.312;2023-03-18T04:18:29;95492.13;;;0.84;92.76
11124;BME280;5616;42.692;23.312;2023-03-18T04:20:56;95496.19;;;0.87;92.52
11124;BME280;5616;42.692;23.312;2023-03-18T04:23:45;95501.16;;;0.99;92.42
11124;BME280;5616;42.692;23.312;2023-03-18T04:26:11;95502.09;;;1.09;92.18
11124;BME280;5616;42.692;23.312;2023-03-18T04:28:39;95508.81;;;1.10;91.77
11124;BME280;5616;42.692;23.312;2023-03-18T04:31:07;95514.50;;;1.25;91.84
11124;BME280;5616;42.692;23.312;2023-03-18T04:33:34;95507.78;;;1.35;91.09
11124;BME280;5616;42.692;23.312;2023-03-18T04:36:01;95517.41;;;1.32;90.43
11124;BME280;5616;42.692;23.312;2023-03-18T04:38:28;95519.81;;;1.22;90.84
11124;BME280;5616;42.692;23.312;2023-03-18T04:40:56;95522.31;;;1.11;91.64
11124;BME280;5616;42.692;23.312;2023-03-18T04:43:23;95515.72;;;1.08;91.64
11124;BME280;5616;42.692;23.312;2023-03-18T04:45:50;95519.47;;;1.15;91.84
11124;BME280;5616;42.692;23.312;2023-03-18T04:48:17;95533.53;;;1.08;92.22
11124;BME280;5616;42.692;23.312;2023-03-18T04:50:45;95530.88;;;1.10;91.77
11124;BME280;5616;42.692;23.312;2023-03-18T04:53:17;95523.72;;;1.15;91.34
11124;BME280;5616;42.692;23.312;2023-03-18T04:55:44;95534.16;;;1.23;90.71
11124;BME280;5616;42.692;23.312;2023-03-18T04:58:15;95534.03;;;1.36;89.56
11124;BME280;5616;42.692;23.312;2023-03-18T05:00:53;95533.03;;;1.49;89.06
11124;BME280;5616;42.692;23.312;2023-03-18T05:03:25;95531.53;;;1.47;87.60
11124;BME280;5616;42.692;23.312;2023-03-18T05:05:52;95536.94;;;1.53;86.78
11124;BME280;5616;42.692;23.312;2023-03-18T05:08:27;95526.66;;;1.55;86.87
11124;BME280;5616;42.692;23.312;2023-03-18T05:10:54;95535.69;;;1.59;86.91
11124;BME280;5616;42.692;23.312;2023-03-18T05:13:23;95529.91;;;1.68;86.05
11124;BME280;5616;42.692;23.312;2023-03-18T05:15:51;95524.81;;;1.79;85.81
11124;BME280;5616;42.692;23.312;2023-03-18T05:18:18;95525.72;;;1.67;85.40
11124;BME280;5616;42.692;23.312;2023-03-18T05:20:47;95524.00;;;1.67;85.50
11124;BME280;5616;42.692;23.312;2023-03-18T05:23:16;95526.78;;;1.87;84.09
11124;BME280;5616;42.692;23.312;2023-03-18T05:25:50;95523.41;;;1.97;83.65
11124;BME280;5616;42.692;23.312;2023-03-18T05:28:19;95520.63;;;2.00;84.49
11124;BME280;5616;42.692;23.312;2023-03-18T05:31:01;95523.06;;;1.91;84.21
11124;BME280;5616;42.692;23.312;2023-03-18T05:33:29;95510.31;;;1.91;84.22
11124;BME280;5616;42.692;23.312;2023-03-18T05:35:56;95514.59;;;2.01;83.57
11124;BME280;5616;42.692;23.312;2023-03-18T05:38:29;95520.00;;;2.19;83.34
11124;BME280;5616;42.692;23.312;2023-03-18T05:40:56;95519.06;;;2.31;82.46
11124;BME280;5616;42.692;23.312;2023-03-18T05:43:31;95524.91;;;2.42;82.15
11124;BME280;5616;42.692;23.312;2023-03-18T05:45:58;95523.38;;;2.51;82.16
11124;BME280;5616;42.692;23.312;2023-03-18T05:48:51;95525.31;;;2.59;82.35
11124;BME280;5616;42.692;23.312;2023-03-18T05:51:19;95532.94;;;2.70;81.67
11124;BME280;5616;42.692;23.312;2023-03-18T05:53:46;95533.13;;;2.78;81.37
11124;BME280;5616;42.692;23.312;2023-03-18T05:56:21;95539.44;;;2.74;81.30
11124;BME280;5616;42.692;23.312;2023-03-18T05:58:51;95542.31;;;2.69;81.11
11124;BME280;5616;42.692;23.312;2023-03-18T06:01:44;95541.63;;;2.67;81.12
11124;BME280;5616;42.692;23.312;2023-03-18T06:04:13;95551.88;;;2.56;81.19
11124;BME280;5616;42.692;23.312;2023-03-18T06:06:40;95548.78;;;2.41;81.99
11124;BME280;5616;42.692;23.312;2023-03-18T06:09:07;95542.66;;;2.33;82.20
11124;BME280;5616;42.692;23.312;2023-03-18T06:11:35;95543.59;;;2.32;82.23
11124;BME280;5616;42.692;23.312;2023-03-18T06:14:03;95550.09;;;2.36;82.16
11124;BME280;5616;42.692;23.312;2023-03-18T06:16:30;95550.91;;;2.36;82.64
11124;BME280;5616;42.692;23.312;2023-03-18T06:18:57;95550.41;;;2.42;82.24
11124;BME280;5616;42.692;23.312;2023-03-18T06:21:25;95548.78;;;2.53;82.43
11124;BME280;5616;42.692;23.312;2023-03-18T06:23:53;95547.56;;;2.68;82.47
11124;BME280;5616;42.692;23.312;2023-03-18T06:26:21;95547.00;;;2.85;80.74
11124;BME280;5616;42.692;23.312;2023-03-18T06:28:48;95518.84;;;2.86;79.97
11124;BME280;5616;42.692;23.312;2023-03-18T06:31:16;95544.22;;;3.08;78.81
11124;BME280;5616;42.692;23.312;2023-03-18T06:33:43;95538.00;;;3.22;79.53
11124;BME280;5616;42.692;23.312;2023-03-18T06:36:13;95535.91;;;3.27;79.31
11124;BME280;5616;42.692;23.312;2023-03-18T06:38:46;95534.47;;;3.34;79.18
11124;BME280;5616;42.692;23.312;2023-03-18T06:41:13;95535.16;;;3.36;78.29
11124;BME280;5616;42.692;23.312;2023-03-18T06:44:00;95528.31;;;3.37;78.53
11124;BME280;5616;42.692;23.312;2023-03-18T06:46:28;95528.34;;;3.46;78.05
11124;BME280;5616;42.692;23.312;2023-03-18T06:48:56;95530.91;;;3.46;78.26
11124;BME280;5616;42.692;23.312;2023-03-18T06:51:28;95521.75;;;3.44;78.31
11124;BME280;5616;42.692;23.312;2023-03-18T06:53:57;95528.22;;;3.48;78.37
11124;BME280;5616;42.692;23.312;2023-03-18T06:56:25;95523.81;;;3.50;78.72
11124;BME280;5616;42.692;23.312;2023-03-18T06:59:01;95530.59;;;3.60;79.01
11124;BME280;5616;42.692;23.312;2023-03-18T07:01:28;95523.38;;;3.75;78.03
11124;BME280;5616;42.692;23.312;2023-03-18T07:03:57;95520.59;;;3.88;77.50
11124;BME280;5616;42.692;23.312;2023-03-18T07:06:26;95520.66;;;3.97;77.78
11124;BME280;5616;42.692;23.312;2023-03-18T07:08:54;95521.72;;;4.04;77.40
11124;BME280;5616;42.692;23.312;2023-03-18T07:11:23;95523.13;;;4.18;77.25
11124;BME280;5616;42.692;23.312;2023-03-18T07:13:51;95513.88;;;4.26;77.14
11124;BME280;5616;42.692;23.312;2023-03-18T07:16:28;95521.44;;;4.47;76.58
11124;BME280;5616;42.692;23.312;2023-03-18T07:18:56;95521.31;;;4.58;75.23
11124;BME280;5616;42.692;23.312;2023-03-18T07:21:23;95521.97;;;4.70;74.90
11124;BME280;5616;42.692;23.312;2023-03-18T07:23:50;95520.91;;;4.82;74.78
11124;BME280;5616;42.692;23.312;2023-03-18T07:26:19;95528.06;;;4.98;73.90
11124;BME280;5616;42.692;23.312;2023-03-18T07:28:47;95517.13;;;4.95;73.80
11124;BME280;5616;42.692;23.312;2023-03-18T07:31:15;95519.41;;;4.99;74.37
11124;BME280;5616;42.692;23.312;2023-03-18T07:33:43;95526.28;;;4.88;74.10
11124;BME280;5616;42.692;23.312;2023-03-18T07:36:10;95526.00;;;5.01;73.98
11124;BME280;5616;42.692;23.312;2023-03-18T07:38:37;95525.31;;;5.09;74.76
11124;BME280;5616;42.692;23.312;2023-03-18T07:41:05;95518.72;;;5.16;73.94
11124;BME280;5616;42.692;23.312;2023-03-18T07:43:32;95526.53;;;5.24;73.82
11124;BME280;5616;42.692;23.312;2023-03-18T07:46:00;95514.66;;;5.23;74.00
11124;BME280;5616;42.692;23.312;2023-03-18T07:48:28;95521.94;;;5.37;74.05
11124;BME280;5616;42.692;23.312;2023-03-18T07:50:55;95516.78;;;5.46;72.25
11124;BME280;5616;42.692;23.312;2023-03-18T07:53:23;95521.75;;;5.48;72.80
11124;BME280;5616;42.692;23.312;2023-03-18T07:55:50;95518.91;;;5.51;73.35
11124;BME280;5616;42.692;23.312;2023-03-18T07:58:17;95522.69;;;5.56;72.86
11124;BME280;5616;42.692;23.312;2023-03-18T08:00:44;95524.63;;;5.82;72.41
11124;BME280;5616;42.692;23.312;2023-03-18T08:03:12;95522.81;;;6.01;70.94
11124;BME280;5616;42.692;23.312;2023-03-18T08:05:39;95526.47;;;6.26;70.01
11124;BME280;5616;42.692;23.312;2023-03-18T08:08:06;95515.09;;;6.11;69.91
11124;BME280;5616;42.692;23.312;2023-03-18T08:10:34;95510.09;;;6.09;71.21
11124;BME280;5616;42.692;23.312;2023-03-18T08:13:01;95510.00;;;6.29;69.68
11124;BME280;5616;42.692;23.312;2023-03-18T08:15:28;95515.56;;;6.42;68.95
11124;BME280;5616;42.692;23.312;2023-03-18T08:17:55;95511.94;;;6.62;69.31
11124;BME280;5616;42.692;23.312;2023-03-18T08:20:23;95517.22;;;6.78;68.63
11124;BME280;5616;42.692;23.312;2023-03-18T08:22:50;95531.75;;;6.87;67.28
11124;BME280;5616;42.692;23.312;2023-03-18T08:25:18;95530.84;;;6.96;67.30
11124;BME280;5616;42.692;23.312;2023-03-18T08:27:46;95534.13;;;7.06;66.33
11124;BME280;5616;42.692;23.312;2023-03-18T08:30:13;95514.72;;;6.86;66.63
11124;BME280;5616;42.692;23.312;2023-03-18T08:32:41;95522.19;;;6.97;67.31
11124;BME280;5616;42.692;23.312;2023-03-18T08:35:08;95515.66;;;7.03;68.05
11124;BME280;5616;42.692;23.312;2023-03-18T08:37:37;95510.63;;;7.36;65.30
11124;BME280;5616;42.692;23.312;2023-03-18T08:40:05;95514.84;;;7.46;64.04
11124;BME280;5616;42.692;23.312;2023-03-18T08:42:34;95521.06;;;7.61;64.14
11124;BME280;5616;42.692;23.312;2023-03-18T08:45:01;95516.91;;;7.68;63.53
11124;BME280;5616;42.692;23.312;2023-03-18T08:47:29;95520.34;;;7.76;64.75
11124;BME280;5616;42.692;23.312;2023-03-18T08:49:56;95519.94;;;7.63;63.92
11124;BME280;5616;42.692;23.312;2023-03-18T08:52:23;95518.78;;;7.58;63.89
11124;BME280;5616;42.692;23.312;2023-03-18T08:54:51;95521.16;;;7.85;62.38
11124;BME280;5616;42.692;23.312;2023-03-18T08:57:18;95524.84;;;8.08;62.02
11124;BME280;5616;42.692;23.312;2023-03-18T08:59:45;95523.13;;;7.91;61.31
11124;BME280;5616;42.692;23.312;2023-03-18T09:02:13;95522.63;;;8.21;61.67
11124;BME280;5616;42.692;23.312;2023-03-18T09:04:41;95516.16;;;8.51;60.95
11124;BME280;5616;42.692;23.312;2023-03-18T09:07:08;95517.97;;;8.58;59.66
11124;BME280;5616;42.692;23.312;2023-03-18T09:09:35;95510.19;;;8.42;59.27
11124;BME280;5616;42.692;23.312;2023-03-18T09:12:04;95517.34;;;8.81;58.36
11124;BME280;5616;42.692;23.312;2023-03-18T09:14:32;95509.78;;;9.11;58.99
11124;BME280;5616;42.692;23.312;2023-03-18T09:16:59;95508.81;;;9.53;58.67
11124;BME280;5616;42.692;23.312;2023-03-18T09:19:26;95512.47;;;9.74;55.04
11124;BME280;5616;42.692;23.312;2023-03-18T09:21:53;95511.53;;;10.06;55.51
11124;BME280;5616;42.692;23.312;2023-03-18T09:24:20;95524.34;;;9.92;53.50
11124;BME280;5616;42.692;23.312;2023-03-18T09:26:47;95518.25;;;9.84;52.89
11124;BME280;5616;42.692;23.312;2023-03-18T09:29:15;95515.28;;;9.96;52.81
11124;BME280;5616;42.692;23.312;2023-03-18T09:31:42;95518.31;;;10.07;53.29
11124;BME280;5616;42.692;23.312;2023-03-18T09:34:09;95510.31;;;10.41;52.33
11124;BME280;5616;42.692;23.312;2023-03-18T09:36:37;95505.72;;;10.51;50.14
11124;BME280;5616;42.692;23.312;2023-03-18T09:39:05;95509.22;;;10.66;47.50
11124;BME280;5616;42.692;23.312;2023-03-18T09:41:41;95503.06;;;10.67;48.03
11124;BME280;5616;42.692;23.312;2023-03-18T09:44:20;95502.75;;;10.39;49.98
11124;BME280;5616;42.692;23.312;2023-03-18T09:47:03;95507.84;;;10.78;49.84
11124;BME280;5616;42.692;23.312;2023-03-18T09:49:48;95498.66;;;10.98;49.67
11124;BME280;5616;42.692;23.312;2023-03-18T09:52:22;95494.84;;;11.32;47.47
11124;BME280;5616;42.692;23.312;2023-03-18T09:54:54;95497.81;;;11.43;48.66
11124;BME280;5616;42.692;23.312;2023-03-18T09:57:26;95497.72;;;11.14;46.88
11124;BME280;5616;42.692;23.312;2023-03-18T10:00:02;95502.75;;;10.93;48.34
11124;BME280;5616;42.692;23.312;2023-03-18T10:02:38;95490.50;;;10.64;49.11
11124;BME280;5616;42.692;23.312;2023-03-18T10:05:10;95485.38;;;11.61;66.57
11124;BME280;5616;42.692;23.312;2023-03-18T10:07:42;95491.13;;;13.29;57.30
11124;BME280;5616;42.692;23.312;2023-03-18T10:10:17;95484.88;;;13.03;44.90
11124;BME280;5616;42.692;23.312;2023-03-18T10:12:49;95484.19;;;12.94;44.34
11124;BME280;5616;42.692;23.312;2023-03-18T10:15:21;95491.66;;;12.61;44.03
11124;BME280;5616;42.692;23.312;2023-03-18T10:17:53;95493.56;;;12.38;43.72
11124;BME280;5616;42.692;23.312;2023-03-18T10:20:28;95491.53;;;12.04;46.37
11124;BME280;5616;42.692;23.312;2023-03-18T10:23:08;95496.47;;;11.99;42.51
11124;BME280;5616;42.692;23.312;2023-03-18T10:25:42;95494.38;;;12.39;51.15
11124;BME280;5616;42.692;23.312;2023-03-18T10:28:24;95488.25;;;12.61;48.21
11124;BME280;5616;42.692;23.312;2023-03-18T10:31:08;95492.16;;;12.21;39.84
11124;BME280;5616;42.692;23.312;2023-03-18T10:33:42;95491.28;;;11.99;42.52
11124;BME280;5616;42.692;23.312;2023-03-18T10:36:17;95485.03;;;11.94;41.86
11124;BME280;5616;42.692;23.312;2023-03-18T10:38:46;95489.53;;;11.62;42.30
11124;BME280;5616;42.692;23.312;2023-03-18T10:41:17;95486.28;;;11.69;42.50
11124;BME280;5616;42.692;23.312;2023-03-18T10:43:46;95490.13;;;11.73;40.72
11124;BME280;5616;42.692;23.312;2023-03-18T10:46:18;95485.25;;;11.03;42.36
11124;BME280;5616;42.692;23.312;2023-03-18T10:48:49;95486.47;;;11.07;43.79
11124;BME280;5616;42.692;23.312;2023-03-18T10:51:20;95485.53;;;11.23;42.25
11124;BME280;5616;42.692;23.312;2023-03-18T10:53:55;95475.41;;;11.36;40.88
11124;BME280;5616;42.692;23.312;2023-03-18T10:56:24;95476.63;;;11.25;42.19
11124;BME280;5616;42.692;23.312;2023-03-18T10:58:51;95472.75;;;11.06;40.49
11124;BME280;5616;42.692;23.312;2023-03-18T11:01:22;95479.97;;;11.34;40.81
11124;BME280;5616;42.692;23.312;2023-03-18T11:03:52;95475.72;;;11.03;41.38
11124;BME280;5616;42.692;23.312;2023-03-18T11:06:22;95478.94;;;10.52;46.27
11124;BME280;5616;42.692;23.312;2023-03-18T11:08:59;95484.63;;;10.48;45.63
11124;BME280;5616;42.692;23.312;2023-03-18T11:11:29;95475.53;;;10.29;47.12
11124;BME280;5616;42.692;23.312;2023-03-18T11:13:59;95485.81;;;10.37;46.03
11124;BME280;5616;42.692;23.312;2023-03-18T11:16:33;95483.78;;;10.24;45.42
11124;BME280;5616;42.692;23.312;2023-03-18T11:19:06;95483.66;;;10.18;45.73
11124;BME280;5616;42.692;23.312;2023-03-18T11:21:34;95473.41;;;9.85;46.70
11124;BME280;5616;42.692;23.312;2023-03-18T11:24:01;95466.44;;;9.55;46.58
11124;BME280;5616;42.692;23.312;2023-03-18T11:26:52;95475.41;;;9.67;47.11
11124;BME280;5616;42.692;23.312;2023-03-18T11:29:22;95463.06;;;9.94;46.56
11124;BME280;5616;42.692;23.312;2023-03-18T11:31:55;95463.34;;;10.15;45.33
11124;BME280;5616;42.692;23.312;2023-03-18T11:34:23;95461.31;;;10.33;43.92
11124;BME280;5616;42.692;23.312;2023-03-18T11:36:56;95465.03;;;10.61;42.30
11124;BME280;5616;42.692;23.312;2023-03-18T11:39:28;95473.84;;;10.44;44.19
11124;BME280;5616;42.692;23.312;2023-03-18T11:41:56;95458.97;;;10.46;42.68
11124;BME280;5616;42.692;23.312;2023-03-18T11:44:29;95455.25;;;10.49;43.15
11124;BME280;5616;42.692;23.312;2023-03-18T11:47:09;95453.28;;;10.59;43.23
11124;BME280;5616;42.692;23.312;2023-03-18T11:49:38;95464.16;;;10.69;41.95
11124;BME280;5616;42.692;23.312;2023-03-18T11:52:30;95469.06;;;10.64;43.71
11124;BME280;5616;42.692;23.312;2023-03-18T11:55:15;95470.66;;;10.87;41.17
11124;BME280;5616;42.692;23.312;2023-03-18T11:58:14;95470.69;;;11.02;41.32
11124;BME280;5616;42.692;23.312;2023-03-18T12:00:53;95464.16;;;10.69;41.67
11124;BME280;5616;42.692;23.312;2023-03-18T12:06:20;95471.28;;;10.89;41.03
11124;BME280;5616;42.692;23.312;2023-03-18T12:09:00;95459.97;;;10.68;41.15
11124;BME280;5616;42.692;23.312;2023-03-18T12:14:30;95463.88;;;10.64;43.41
11124;BME280;5616;42.692;23.312;2023-03-18T12:17:10;95463.28;;;10.54;42.86
11124;BME280;5616;42.692;23.312;2023-03-18T12:22:55;95462.91;;;10.87;42.30
11124;BME280;5616;42.692;23.312;2023-03-18T12:25:37;95466.75;;;10.91;43.30
11124;BME280;5616;42.692;23.312;2023-03-18T12:28:14;95458.94;;;10.99;40.63
11124;BME280;5616;42.692;23.312;2023-03-18T12:30:56;95460.66;;;10.84;41.38
11124;BME280;5616;42.692;23.312;2023-03-18T12:33:37;95452.50;;;10.73;42.85
11124;BME280;5616;42.692;23.312;2023-03-18T12:36:17;95449.94;;;10.73;42.63
11124;BME280;5616;42.692;23.312;2023-03-18T12:39:26;95450.56;;;10.97;40.95
11124;BME280;5616;42.692;23.312;2023-03-18T12:42:02;95445.34;;;11.20;41.92
11124;BME280;5616;42.692;23.312;2023-03-18T12:44:44;95444.69;;;11.55;40.38
11124;BME280;5616;42.692;23.312;2023-03-18T12:47:17;95442.63;;;11.51;39.96
11124;BME280;5616;42.692;23.312;2023-03-18T12:49:50;95455.66;;;11.43;39.42
11124;BME280;5616;42.692;23.312;2023-03-18T12:52:24;95451.25;;;10.91;40.76
11124;BME280;5616;42.692;23.312;2023-03-18T12:55:00;95456.09;;;10.41;41.38
11124;BME280;5616;42.692;23.312;2023-03-18T12:57:35;95454.03;;;10.59;40.88
11124;BME280;5616;42.692;23.312;2023-03-18T13:00:07;95446.38;;;10.74;40.22
11124;BME280;5616;42.692;23.312;2023-03-18T13:02:44;95451.25;;;10.91;39.80
11124;BME280;5616;42.692;23.312;2023-03-18T13:05:20;95453.34;;;11.11;39.56
11124;BME280;5616;42.692;23.312;2023-03-18T13:07:59;95451.03;;;10.78;39.73
11124;BME280;5616;42.692;23.312;2023-03-18T13:10:33;95437.25;;;10.63;39.62
11124;BME280;5616;42.692;23.312;2023-03-18T13:13:05;95445.53;;;10.96;39.80
11124;BME280;5616;42.692;23.312;2023-03-18T13:15:37;95442.28;;;11.02;38.73
11124;BME280;5616;42.692;23.312;2023-03-18T13:18:14;95456.84;;;11.18;39.49
11124;BME280;5616;42.692;23.312;2023-03-18T13:20:42;95454.28;;;11.32;37.96
11124;BME280;5616;42.692;23.312;2023-03-18T13:23:28;95459.34;;;11.11;37.36
11124;BME280;5616;42.692;23.312;2023-03-18T13:26:08;95453.66;;;10.93;36.86
11124;BME280;5616;42.692;23.312;2023-03-18T13:28:47;95452.84;;;10.70;38.73
11124;BME280;5616;42.692;23.312;2023-03-18T13:31:25;95443.84;;;10.88;37.38
11124;BME280;5616;42.692;23.312;2023-03-18T13:34:10;95447.75;;;10.84;37.69
11124;BME280;5616;42.692;23.312;2023-03-18T13:37:11;95442.06;;;10.89;39.05